PGT2940 LTFJ-LTFD
Flight info
| Callsign | PGT2940 |
|---|---|
| Flight time | 0h 37m |
| Altitude | 28000 |
| Route | IVGUS Y227 RAUMA G80 KONEN |
| Aircraft | A320/M-SDE3FGHIRWY/LB1 |
Departure
| Time | 2026-04-29 16:24 |
|---|---|
| Airport | Istanbul Sabiha Gökçen International Airport (LTFJ) |
Arrival
| Time | 2026-04-29 17:01 |
|---|---|
| Airport | Balıkesir Koca Seyit Airport (LTFD) |
| Time | Latitude | Longitude | Altitude | Speed | Heading |
|---|---|---|---|---|---|
| 2026-04-29 15:48 | 40.90319 | 29.31323 | 310 ft | 0 kts | 154° |
| 2026-04-29 16:00 | 40.90320 | 29.31323 | 311 ft | 0 kts | 154° |
| 2026-04-29 16:09 | 40.90333 | 29.31315 | 311 ft | 3 kts | 155° |
| 2026-04-29 16:09 | 40.90354 | 29.31302 | 310 ft | 3 kts | 158° |
| 2026-04-29 16:10 | 40.90376 | 29.31292 | 310 ft | 3 kts | 174° |
| 2026-04-29 16:10 | 40.90396 | 29.31295 | 309 ft | 3 kts | 228° |
| 2026-04-29 16:10 | 40.90399 | 29.31300 | 310 ft | 0 kts | 243° |
| 2026-04-29 16:13 | 40.90398 | 29.31298 | 311 ft | 2 kts | 243° |
| 2026-04-29 16:13 | 40.90382 | 29.31256 | 310 ft | 6 kts | 243° |
| 2026-04-29 16:13 | 40.90364 | 29.31205 | 311 ft | 7 kts | 245° |
| 2026-04-29 16:13 | 40.90338 | 29.31132 | 310 ft | 9 kts | 244° |
| 2026-04-29 16:14 | 40.90311 | 29.31061 | 311 ft | 8 kts | 244° |
| 2026-04-29 16:14 | 40.90287 | 29.30995 | 311 ft | 8 kts | 244° |
| 2026-04-29 16:14 | 40.90264 | 29.30933 | 311 ft | 7 kts | 244° |
| 2026-04-29 16:14 | 40.90238 | 29.30883 | 311 ft | 6 kts | 213° |
| 2026-04-29 16:15 | 40.90201 | 29.30882 | 311 ft | 5 kts | 161° |
| 2026-04-29 16:15 | 40.90141 | 29.30919 | 311 ft | 13 kts | 154° |
| 2026-04-29 16:15 | 40.90062 | 29.30906 | 311 ft | 12 kts | 230° |
| 2026-04-29 16:15 | 40.90026 | 29.30811 | 311 ft | 11 kts | 243° |
| 2026-04-29 16:16 | 40.89991 | 29.30718 | 311 ft | 12 kts | 244° |
| 2026-04-29 16:16 | 40.89939 | 29.30579 | 309 ft | 19 kts | 244° |
| 2026-04-29 16:16 | 40.89885 | 29.30430 | 310 ft | 18 kts | 244° |
| 2026-04-29 16:16 | 40.89833 | 29.30287 | 309 ft | 17 kts | 243° |
| 2026-04-29 16:17 | 40.89780 | 29.30148 | 309 ft | 17 kts | 244° |
| 2026-04-29 16:17 | 40.89730 | 29.30011 | 309 ft | 16 kts | 244° |
| 2026-04-29 16:17 | 40.89682 | 29.29878 | 307 ft | 16 kts | 244° |
| 2026-04-29 16:17 | 40.89633 | 29.29747 | 306 ft | 16 kts | 244° |
| 2026-04-29 16:18 | 40.89583 | 29.29611 | 304 ft | 17 kts | 244° |
| 2026-04-29 16:18 | 40.89535 | 29.29481 | 304 ft | 13 kts | 244° |
| 2026-04-29 16:18 | 40.89496 | 29.29374 | 306 ft | 13 kts | 244° |
| 2026-04-29 16:18 | 40.89454 | 29.29276 | 303 ft | 12 kts | 225° |
| 2026-04-29 16:19 | 40.89386 | 29.29260 | 304 ft | 5 kts | 161° |
| 2026-04-29 16:19 | 40.89366 | 29.29273 | 304 ft | 0 kts | 155° |
| 2026-04-29 16:22 | 40.89350 | 29.29282 | 302 ft | 9 kts | 155° |
| 2026-04-29 16:23 | 40.89290 | 29.29319 | 301 ft | 5 kts | 155° |
| 2026-04-29 16:23 | 40.89274 | 29.29339 | 302 ft | 2 kts | 103° |
| 2026-04-29 16:23 | 40.89290 | 29.29386 | 305 ft | 21 kts | 65° |
| 2026-04-29 16:23 | 40.89462 | 29.29854 | 308 ft | 89 kts | 64° |
| 2026-04-29 16:24 | 40.89813 | 29.30811 | 312 ft | 140 kts | 64° |
| 2026-04-29 16:24 | 40.90289 | 29.32089 | 651 ft | 158 kts | 63° |
| 2026-04-29 16:24 | 40.90776 | 29.33385 | 1364 ft | 157 kts | 64° |
| 2026-04-29 16:24 | 40.91254 | 29.34691 | 2017 ft | 162 kts | 65° |
| 2026-04-29 16:25 | 40.91744 | 29.36139 | 2349 ft | 183 kts | 76° |
| 2026-04-29 16:25 | 40.91644 | 29.37888 | 2608 ft | 208 kts | 115° |
| 2026-04-29 16:25 | 40.90542 | 29.39225 | 3082 ft | 228 kts | 160° |
| 2026-04-29 16:25 | 40.88945 | 29.39291 | 3767 ft | 242 kts | 193° |
| 2026-04-29 16:26 | 40.87254 | 29.38611 | 4205 ft | 265 kts | 197° |
| 2026-04-29 16:26 | 40.85456 | 29.37855 | 4984 ft | 274 kts | 198° |
| 2026-04-29 16:26 | 40.83774 | 29.36720 | 5816 ft | 279 kts | 221° |
| 2026-04-29 16:26 | 40.82549 | 29.34709 | 6711 ft | 279 kts | 248° |
| 2026-04-29 16:27 | 40.81988 | 29.32273 | 7613 ft | 277 kts | 260° |
| 2026-04-29 16:27 | 40.81598 | 29.29777 | 8572 ft | 278 kts | 261° |
| 2026-04-29 16:27 | 40.81215 | 29.27321 | 9501 ft | 279 kts | 261° |
| 2026-04-29 16:27 | 40.80813 | 29.24795 | 10340 ft | 285 kts | 261° |
| 2026-04-29 16:28 | 40.80386 | 29.22125 | 10601 ft | 309 kts | 261° |
| 2026-04-29 16:28 | 40.79925 | 29.19281 | 11115 ft | 321 kts | 260° |
| 2026-04-29 16:28 | 40.79448 | 29.16381 | 11887 ft | 325 kts | 260° |
| 2026-04-29 16:28 | 40.78974 | 29.13453 | 12707 ft | 327 kts | 260° |
| 2026-04-29 16:29 | 40.78495 | 29.10505 | 13520 ft | 330 kts | 259° |
| 2026-04-29 16:29 | 40.78008 | 29.07532 | 14263 ft | 332 kts | 259° |
| 2026-04-29 16:29 | 40.77519 | 29.04541 | 14936 ft | 335 kts | 259° |
| 2026-04-29 16:29 | 40.77104 | 29.01504 | 15602 ft | 338 kts | 267° |
| 2026-04-29 16:30 | 40.77193 | 28.98385 | 16271 ft | 340 kts | 275° |
| 2026-04-29 16:30 | 40.77387 | 28.95262 | 16949 ft | 343 kts | 275° |
| 2026-04-29 16:30 | 40.77575 | 28.92104 | 17608 ft | 347 kts | 275° |
| 2026-04-29 16:30 | 40.77762 | 28.88917 | 18270 ft | 350 kts | 275° |
| 2026-04-29 16:31 | 40.77947 | 28.85696 | 18842 ft | 353 kts | 275° |
| 2026-04-29 16:31 | 40.78137 | 28.82450 | 19411 ft | 356 kts | 275° |
| 2026-04-29 16:31 | 40.78327 | 28.79185 | 19974 ft | 359 kts | 275° |
| 2026-04-29 16:31 | 40.78510 | 28.75888 | 20532 ft | 361 kts | 275° |
| 2026-04-29 16:32 | 40.78693 | 28.72569 | 21078 ft | 364 kts | 275° |
| 2026-04-29 16:32 | 40.78815 | 28.70360 | 21440 ft | 366 kts | 275° |
| 2026-04-29 16:32 | 40.79048 | 28.65853 | 22145 ft | 370 kts | 271° |
| 2026-04-29 16:32 | 40.78583 | 28.62498 | 22647 ft | 377 kts | 254° |
| 2026-04-29 16:33 | 40.77072 | 28.55827 | 23668 ft | 382 kts | 257° |
| 2026-04-29 16:33 | 40.76371 | 28.52424 | 24105 ft | 384 kts | 257° |
| 2026-04-29 16:33 | 40.75671 | 28.49015 | 24549 ft | 386 kts | 257° |
| 2026-04-29 16:34 | 40.74978 | 28.45585 | 24995 ft | 388 kts | 257° |
| 2026-04-29 16:34 | 40.74280 | 28.42133 | 25402 ft | 391 kts | 257° |
| 2026-04-29 16:34 | 40.73583 | 28.38661 | 25819 ft | 393 kts | 257° |
| 2026-04-29 16:34 | 40.72876 | 28.35170 | 26233 ft | 395 kts | 257° |
| 2026-04-29 16:35 | 40.72167 | 28.31663 | 26645 ft | 397 kts | 257° |
| 2026-04-29 16:35 | 40.71449 | 28.28135 | 27057 ft | 399 kts | 257° |
| 2026-04-29 16:35 | 40.70727 | 28.24591 | 27459 ft | 402 kts | 258° |
| 2026-04-29 16:35 | 40.70002 | 28.21029 | 27851 ft | 403 kts | 257° |
| 2026-04-29 16:36 | 40.69288 | 28.17556 | 28079 ft | 393 kts | 257° |
| 2026-04-29 16:36 | 40.68588 | 28.14108 | 28110 ft | 387 kts | 258° |
| 2026-04-29 16:36 | 40.67190 | 28.07286 | 28108 ft | 385 kts | 257° |
| 2026-04-29 16:37 | 40.66425 | 28.03869 | 28090 ft | 396 kts | 251° |
| 2026-04-29 16:37 | 40.65069 | 28.00719 | 28105 ft | 398 kts | 235° |
| 2026-04-29 16:37 | 40.63051 | 27.98199 | 28111 ft | 405 kts | 220° |
| 2026-04-29 16:37 | 40.61468 | 27.96795 | 28111 ft | 406 kts | 218° |
| 2026-04-29 16:38 | 40.55990 | 27.92040 | 28109 ft | 405 kts | 218° |
| 2026-04-29 16:38 | 40.52046 | 27.88615 | 28106 ft | 405 kts | 218° |
| 2026-04-29 16:39 | 40.47341 | 27.84533 | 28056 ft | 404 kts | 218° |
| 2026-04-29 16:39 | 40.45037 | 27.82537 | 27797 ft | 399 kts | 218° |
| 2026-04-29 16:39 | 40.42735 | 27.80529 | 27529 ft | 396 kts | 218° |
| 2026-04-29 16:40 | 40.40416 | 27.78508 | 27264 ft | 394 kts | 218° |
| 2026-04-29 16:40 | 40.38140 | 27.76543 | 26924 ft | 388 kts | 218° |
| 2026-04-29 16:40 | 40.35920 | 27.74625 | 26424 ft | 385 kts | 218° |
| 2026-04-29 16:40 | 40.33695 | 27.72704 | 25936 ft | 382 kts | 218° |
| 2026-04-29 16:41 | 40.31487 | 27.70793 | 25472 ft | 379 kts | 218° |
| 2026-04-29 16:41 | 40.29299 | 27.68897 | 25001 ft | 376 kts | 218° |
| 2026-04-29 16:41 | 40.27120 | 27.67020 | 24536 ft | 374 kts | 218° |
| 2026-04-29 16:41 | 40.24953 | 27.65157 | 24065 ft | 371 kts | 218° |
| 2026-04-29 16:42 | 40.22800 | 27.63305 | 23586 ft | 369 kts | 218° |
| 2026-04-29 16:42 | 40.20658 | 27.61468 | 23078 ft | 367 kts | 218° |
| 2026-04-29 16:42 | 40.18539 | 27.59646 | 22618 ft | 362 kts | 218° |
| 2026-04-29 16:42 | 40.16443 | 27.57840 | 22190 ft | 359 kts | 218° |
| 2026-04-29 16:43 | 40.14364 | 27.56051 | 21732 ft | 357 kts | 218° |
| 2026-04-29 16:43 | 40.12290 | 27.54277 | 21288 ft | 355 kts | 218° |
| 2026-04-29 16:43 | 40.10234 | 27.52504 | 20820 ft | 353 kts | 217° |
| 2026-04-29 16:43 | 40.08186 | 27.50749 | 20379 ft | 351 kts | 217° |
| 2026-04-29 16:44 | 40.06142 | 27.49004 | 19937 ft | 350 kts | 217° |
| 2026-04-29 16:44 | 40.04105 | 27.47267 | 19492 ft | 350 kts | 217° |
| 2026-04-29 16:44 | 40.02074 | 27.45528 | 19026 ft | 348 kts | 217° |
| 2026-04-29 16:44 | 40.00056 | 27.43807 | 18600 ft | 346 kts | 217° |
| 2026-04-29 16:45 | 39.98045 | 27.42095 | 18130 ft | 344 kts | 217° |
| 2026-04-29 16:45 | 39.96048 | 27.40390 | 17686 ft | 342 kts | 217° |
| 2026-04-29 16:45 | 39.94063 | 27.38694 | 17262 ft | 340 kts | 217° |
| 2026-04-29 16:45 | 39.92095 | 27.37018 | 16857 ft | 337 kts | 216° |
| 2026-04-29 16:46 | 39.90135 | 27.35347 | 16440 ft | 335 kts | 216° |
| 2026-04-29 16:46 | 39.88190 | 27.33683 | 16000 ft | 334 kts | 216° |
| 2026-04-29 16:46 | 39.86252 | 27.32031 | 15584 ft | 332 kts | 216° |
| 2026-04-29 16:46 | 39.84319 | 27.30393 | 15189 ft | 331 kts | 215° |
| 2026-04-29 16:47 | 39.82436 | 27.28683 | 14803 ft | 329 kts | 222° |
| 2026-04-29 16:47 | 39.80810 | 27.26621 | 14413 ft | 325 kts | 231° |
| 2026-04-29 16:47 | 39.79486 | 27.24255 | 14018 ft | 323 kts | 239° |
| 2026-04-29 16:47 | 39.78306 | 27.21769 | 13585 ft | 322 kts | 240° |
| 2026-04-29 16:48 | 39.77134 | 27.19299 | 13173 ft | 320 kts | 240° |
| 2026-04-29 16:48 | 39.75958 | 27.16841 | 12741 ft | 318 kts | 240° |
| 2026-04-29 16:48 | 39.74786 | 27.14409 | 12351 ft | 317 kts | 239° |
| 2026-04-29 16:48 | 39.73623 | 27.11993 | 11941 ft | 315 kts | 240° |
| 2026-04-29 16:49 | 39.72462 | 27.09591 | 11545 ft | 313 kts | 239° |
| 2026-04-29 16:49 | 39.71213 | 27.07283 | 11142 ft | 312 kts | 235° |
| 2026-04-29 16:49 | 39.69921 | 27.05027 | 10739 ft | 311 kts | 235° |
| 2026-04-29 16:49 | 39.68637 | 27.02778 | 10337 ft | 309 kts | 236° |
| 2026-04-29 16:50 | 39.67379 | 27.00562 | 10142 ft | 299 kts | 236° |
| 2026-04-29 16:50 | 39.66170 | 26.98424 | 10032 ft | 288 kts | 236° |
| 2026-04-29 16:50 | 39.64995 | 26.96338 | 9704 ft | 285 kts | 236° |
| 2026-04-29 16:50 | 39.63826 | 26.94270 | 9329 ft | 283 kts | 236° |
| 2026-04-29 16:51 | 39.62662 | 26.92219 | 8971 ft | 281 kts | 236° |
| 2026-04-29 16:51 | 39.61505 | 26.90188 | 8602 ft | 279 kts | 236° |
| 2026-04-29 16:51 | 39.60357 | 26.88172 | 8243 ft | 277 kts | 236° |
| 2026-04-29 16:51 | 39.59218 | 26.86163 | 7870 ft | 276 kts | 236° |
| 2026-04-29 16:52 | 39.58087 | 26.84160 | 7479 ft | 275 kts | 236° |
| 2026-04-29 16:52 | 39.56949 | 26.82160 | 7291 ft | 274 kts | 236° |
| 2026-04-29 16:52 | 39.55848 | 26.80227 | 7261 ft | 258 kts | 236° |
| 2026-04-29 16:52 | 39.54812 | 26.78409 | 7221 ft | 245 kts | 236° |
| 2026-04-29 16:53 | 39.53803 | 26.76640 | 6929 ft | 243 kts | 236° |
| 2026-04-29 16:53 | 39.52799 | 26.74886 | 6632 ft | 241 kts | 236° |
| 2026-04-29 16:53 | 39.51806 | 26.73145 | 6336 ft | 240 kts | 236° |
| 2026-04-29 16:53 | 39.50818 | 26.71412 | 6037 ft | 239 kts | 235° |
| 2026-04-29 16:54 | 39.49832 | 26.69692 | 5750 ft | 237 kts | 234° |
| 2026-04-29 16:54 | 39.48623 | 26.68277 | 5543 ft | 235 kts | 205° |
| 2026-04-29 16:54 | 39.47030 | 26.67941 | 5399 ft | 236 kts | 170° |
| 2026-04-29 16:54 | 39.45568 | 26.68836 | 5124 ft | 234 kts | 142° |
| 2026-04-29 16:55 | 39.44261 | 26.70098 | 4822 ft | 234 kts | 142° |
| 2026-04-29 16:55 | 39.42964 | 26.71353 | 4506 ft | 231 kts | 142° |
| 2026-04-29 16:55 | 39.41718 | 26.72610 | 4213 ft | 223 kts | 133° |
| 2026-04-29 16:55 | 39.41009 | 26.74280 | 4114 ft | 211 kts | 97° |
| 2026-04-29 16:56 | 39.41201 | 26.76141 | 3863 ft | 210 kts | 63° |
| 2026-04-29 16:56 | 39.41996 | 26.77691 | 3743 ft | 204 kts | 54° |
| 2026-04-29 16:56 | 39.42807 | 26.79117 | 3741 ft | 192 kts | 53° |
| 2026-04-29 16:56 | 39.43593 | 26.80499 | 3566 ft | 189 kts | 53° |
| 2026-04-29 16:57 | 39.44371 | 26.81867 | 3347 ft | 189 kts | 54° |
| 2026-04-29 16:57 | 39.45148 | 26.83232 | 3100 ft | 188 kts | 54° |
| 2026-04-29 16:57 | 39.45916 | 26.84581 | 2845 ft | 184 kts | 54° |
| 2026-04-29 16:57 | 39.46670 | 26.85907 | 2603 ft | 181 kts | 54° |
| 2026-04-29 16:58 | 39.47412 | 26.87212 | 2373 ft | 178 kts | 54° |
| 2026-04-29 16:58 | 39.48132 | 26.88480 | 2133 ft | 176 kts | 54° |
| 2026-04-29 16:58 | 39.48857 | 26.89756 | 1886 ft | 171 kts | 55° |
| 2026-04-29 16:58 | 39.49548 | 26.90972 | 1676 ft | 164 kts | 54° |
| 2026-04-29 16:59 | 39.50204 | 26.92128 | 1448 ft | 153 kts | 54° |
| 2026-04-29 16:59 | 39.50817 | 26.93210 | 1241 ft | 150 kts | 54° |
| 2026-04-29 16:59 | 39.51437 | 26.94304 | 1036 ft | 152 kts | 55° |
| 2026-04-29 16:59 | 39.52067 | 26.95415 | 831 ft | 153 kts | 54° |
| 2026-04-29 17:00 | 39.52695 | 26.96523 | 663 ft | 153 kts | 54° |
| 2026-04-29 17:00 | 39.53319 | 26.97622 | 468 ft | 151 kts | 55° |
| 2026-04-29 17:00 | 39.53940 | 26.98726 | 269 ft | 152 kts | 53° |
| 2026-04-29 17:00 | 39.54559 | 26.99824 | 50 ft | 149 kts | 53° |
| 2026-04-29 17:01 | 39.55086 | 27.00745 | 47 ft | 102 kts | 53° |
| 2026-04-29 17:01 | 39.55401 | 27.01306 | 51 ft | 52 kts | 54° |
| 2026-04-29 17:01 | 39.55526 | 27.01523 | 52 ft | 8 kts | 44° |
| 2026-04-29 17:01 | 39.55555 | 27.01547 | 53 ft | 4 kts | 36° |
| 2026-04-29 17:02 | 39.55548 | 27.01570 | 53 ft | 1 kts | 146° |
| 2026-04-29 17:02 | 39.55540 | 27.01562 | 50 ft | 2 kts | 222° |
| 2026-04-29 17:02 | 39.55515 | 27.01507 | 52 ft | 9 kts | 238° |
| 2026-04-29 17:02 | 39.55473 | 27.01431 | 53 ft | 16 kts | 234° |
| 2026-04-29 17:03 | 39.55391 | 27.01287 | 55 ft | 21 kts | 233° |
| 2026-04-29 17:03 | 39.55301 | 27.01129 | 53 ft | 21 kts | 234° |
| 2026-04-29 17:03 | 39.55229 | 27.01002 | 51 ft | 13 kts | 233° |
| 2026-04-29 17:03 | 39.55178 | 27.00940 | 48 ft | 8 kts | 189° |
| 2026-04-29 17:04 | 39.55136 | 27.00970 | 48 ft | 7 kts | 144° |
| 2026-04-29 17:04 | 39.55099 | 27.01005 | 48 ft | 7 kts | 144° |
| 2026-04-29 17:04 | 39.55062 | 27.01039 | 48 ft | 8 kts | 144° |
| 2026-04-29 17:04 | 39.55011 | 27.01086 | 50 ft | 8 kts | 144° |
| 2026-04-29 17:05 | 39.54967 | 27.01119 | 50 ft | 7 kts | 155° |
| 2026-04-29 17:05 | 39.54937 | 27.01148 | 50 ft | 3 kts | 143° |
| 2026-04-29 17:05 | 39.54927 | 27.01159 | 50 ft | 1 kts | 142° |
| 2026-04-29 17:05 | 39.54925 | 27.01161 | 50 ft | 0 kts | 142° |